Time;durP1;ratioP1;P1;durP2;ratioP2;P2;SDS_P1;SDS_P2;PMS_P1;PMS_P2;Temp;Humidity;BMP_temperature;BMP_pressure;BME280_temperature;BME280_humidity;BME280_pressure;Samples;Min_cycle;Max_cycle;Signal;HPM_P1;HPM_P2
2022/03/05 00:00:12;;;;;;;2.25;1.90;;;;;;;16.68;40.18;102115.78;5123304;28;20024;-58
2022/03/05 00:02:37;;;;;;;2.50;2.20;;;;;;;16.65;39.96;102118.75;5122922;28;20024;-59
2022/03/05 00:05:03;;;;;;;2.55;2.03;;;;;;;16.66;40.20;102116.91;5123697;28;20042;-57
2022/03/05 00:07:28;;;;;;;3.17;2.17;;;;;;;16.64;40.13;102113.47;5123078;28;20031;-58
2022/03/05 00:09:53;;;;;;;2.60;1.85;;;;;;;16.63;40.15;102111.78;5123057;28;20051;-58
2022/03/05 00:12:19;;;;;;;2.67;2.30;;;;;;;16.61;40.13;102111.03;5122502;28;20027;-58
2022/03/05 00:14:44;;;;;;;2.22;1.90;;;;;;;16.59;40.00;102115.69;5122773;28;20034;-58
2022/03/05 00:17:09;;;;;;;2.75;2.10;;;;;;;16.58;40.26;102112.16;5123019;28;20023;-58
2022/03/05 00:19:34;;;;;;;2.60;2.08;;;;;;;16.57;40.13;102106.91;5122485;28;20044;-59
2022/03/05 00:22:01;;;;;;;2.28;2.03;;;;;;;16.56;40.22;102113.25;5123485;28;20034;-58
2022/03/05 00:24:27;;;;;;;2.25;2.00;;;;;;;16.53;40.20;102108.13;5122946;28;20087;-58
2022/03/05 00:26:52;;;;;;;2.50;2.10;;;;;;;16.52;40.18;102103.72;5124212;28;20032;-58
2022/03/05 00:29:18;;;;;;;2.97;2.00;;;;;;;16.51;40.21;102102.88;5126334;28;20052;-58
2022/03/05 00:31:43;;;;;;;2.00;1.65;;;;;;;16.50;40.24;102107.41;5126763;28;20460;-58
2022/03/05 00:34:08;;;;;;;2.35;1.95;;;;;;;16.47;40.19;102099.56;5126553;28;20177;-58
2022/03/05 00:36:33;;;;;;;2.55;2.00;;;;;;;16.47;40.13;102099.56;5126569;28;20023;-58
2022/03/05 00:38:59;;;;;;;2.70;2.05;;;;;;;16.46;39.86;102097.88;5126260;28;20023;-58
2022/03/05 00:41:24;;;;;;;3.25;2.40;;;;;;;16.45;40.23;102101.56;5126238;28;20044;-58
2022/03/05 00:43:49;;;;;;;2.25;2.05;;;;;;;16.44;39.96;102096.31;5126203;28;20039;-58
2022/03/05 00:46:14;;;;;;;2.20;2.00;;;;;;;16.40;40.26;102092.16;5126530;28;20031;-58
2022/03/05 00:48:40;;;;;;;2.65;2.05;;;;;;;16.40;40.19;102102.91;5125856;28;20050;-58
2022/03/05 00:51:05;;;;;;;2.88;2.30;;;;;;;16.38;40.25;102105.69;5126835;28;20055;-58
2022/03/05 00:53:30;;;;;;;2.13;1.90;;;;;;;16.37;40.24;102104.00;5126151;28;20095;-58
2022/03/05 00:55:56;;;;;;;2.67;2.25;;;;;;;16.35;40.13;102111.28;5126439;28;20429;-57
2022/03/05 00:58:21;;;;;;;2.63;2.00;;;;;;;16.35;40.20;102108.63;5125742;28;20515;-57
2022/03/05 01:00:47;;;;;;;2.20;1.88;;;;;;;16.33;40.23;102099.84;5126000;28;20123;-57
2022/03/05 01:03:13;;;;;;;2.47;2.08;;;;;;;16.32;40.34;102106.19;5125647;27;20283;-58
2022/03/05 01:05:38;;;;;;;2.80;2.17;;;;;;;16.31;40.12;102106.31;5126224;28;20035;-58
2022/03/05 01:08:04;;;;;;;2.20;1.80;;;;;;;16.30;40.22;102109.97;5125561;28;20031;-57
2022/03/05 01:10:29;;;;;;;3.15;2.13;;;;;;;16.26;40.28;102101.31;5119495;28;20088;-57
2022/03/05 01:12:54;;;;;;;3.08;2.47;;;;;;;16.28;40.27;102110.09;5119283;28;20036;-58
2022/03/05 01:15:19;;;;;;;2.00;1.80;;;;;;;16.26;40.30;102114.72;5125094;28;20035;-58
2022/03/05 01:17:45;;;;;;;2.10;1.90;;;;;;;16.24;40.38;102104.13;5125298;28;20038;-58
2022/03/05 01:20:10;;;;;;;2.45;1.83;;;;;;;16.23;40.22;102109.63;5125897;28;20036;-58
2022/03/05 01:22:36;;;;;;;2.45;2.17;;;;;;;16.22;40.28;102107.88;5111816;28;20085;-57
2022/03/05 01:25:01;;;;;;;2.33;1.98;;;;;;;16.20;40.29;102112.53;5105924;28;20024;-57
2022/03/05 01:27:27;;;;;;;2.28;1.90;;;;;;;16.20;40.23;102110.69;5105443;28;20024;-57
2022/03/05 01:29:52;;;;;;;2.40;2.20;;;;;;;16.19;40.38;102109.00;5105898;28;20028;-57
2022/03/05 01:32:17;;;;;;;2.25;1.65;;;;;;;16.19;40.19;102113.53;5106177;28;20055;-57
2022/03/05 01:34:42;;;;;;;1.70;1.60;;;;;;;16.17;40.20;102116.31;5105452;28;20121;-58
2022/03/05 01:37:07;;;;;;;2.30;1.95;;;;;;;16.16;40.22;102103.03;5105949;28;20031;-57
2022/03/05 01:39:33;;;;;;;2.40;2.05;;;;;;;16.11;40.27;102097.16;5105009;28;20101;-57
2022/03/05 01:41:58;;;;;;;1.70;1.52;;;;;;;16.13;40.27;102109.47;5112391;28;20023;-58
2022/03/05 01:44:24;;;;;;;2.50;2.13;;;;;;;16.13;40.22;102111.31;5124628;28;20035;-58
2022/03/05 01:46:49;;;;;;;2.13;1.92;;;;;;;16.10;40.03;102101.69;5125088;28;20016;-57
2022/03/05 01:49:15;;;;;;;2.95;2.10;;;;;;;16.10;40.28;102092.75;5124901;28;20040;-58
2022/03/05 01:51:41;;;;;;;2.45;2.10;;;;;;;16.10;40.21;102098.13;5125571;28;20031;-58
2022/03/05 01:54:07;;;;;;;2.20;1.60;;;;;;;16.10;40.23;102104.38;5125198;28;20132;-58
2022/03/05 01:56:32;;;;;;;2.15;1.85;;;;;;;15.95;40.24;102084.94;5125171;27;20138;-58
2022/03/05 01:58:59;;;;;;;1.95;1.75;;;;;;;16.08;40.23;102102.75;5123315;28;20020;-58
2022/03/05 02:01:25;;;;;;;2.35;1.95;;;;;;;16.04;40.20;102093.25;5123887;28;20073;-58
2022/03/05 02:03:51;;;;;;;1.83;1.73;;;;;;;16.07;40.31;102093.03;5124508;28;20045;-58
2022/03/05 02:06:17;;;;;;;2.10;1.90;;;;;;;16.04;40.21;102093.25;5125152;28;20070;-58
2022/03/05 02:08:42;;;;;;;2.78;2.22;;;;;;;16.05;40.22;102098.47;5124542;28;20593;-58
2022/03/05 02:11:07;;;;;;;2.63;1.80;;;;;;;16.02;40.30;102098.75;5124599;28;20031;-57
2022/03/05 02:13:32;;;;;;;1.73;1.63;;;;;;;16.03;40.22;102100.44;5123839;28;20614;-58
2022/03/05 02:15:58;;;;;;;2.60;2.13;;;;;;;16.02;40.15;102092.53;5124831;28;20123;-58
2022/03/05 02:18:23;;;;;;;2.40;1.95;;;;;;;16.00;40.19;102093.47;5124219;28;20034;-58
2022/03/05 02:20:52;;;;;;;2.20;2.00;;;;;;;16.00;40.25;102089.94;5124657;28;20097;-58
2022/03/05 02:23:18;;;;;;;2.08;1.88;;;;;;;15.96;40.19;102089.34;5124343;28;20498;-58
2022/03/05 02:25:54;;;;;;;2.03;1.80;;;;;;;15.99;40.27;102094.47;5124646;28;20054;-58
2022/03/05 02:28:21;;;;;;;2.10;1.90;;;;;;;15.98;40.14;102090.09;5123968;28;20023;-58
2022/03/05 02:30:46;;;;;;;2.20;1.80;;;;;;;15.96;40.38;102086.66;5124709;28;20031;-55
2022/03/05 02:33:11;;;;;;;2.15;1.95;;;;;;;15.97;40.24;102084.81;5124058;28;20114;-58
2022/03/05 02:35:36;;;;;;;2.13;1.92;;;;;;;15.96;40.24;102092.00;5124589;28;20093;-59
2022/03/05 02:38:02;;;;;;;2.38;2.17;;;;;;;15.90;40.22;102081.78;5124202;28;20426;-58
2022/03/05 02:40:27;;;;;;;2.38;2.17;;;;;;;15.93;40.24;102089.59;5124182;28;20388;-58
2022/03/05 02:42:52;;;;;;;2.15;1.95;;;;;;;15.93;40.21;102086.06;5123318;28;20075;-58
2022/03/05 02:45:18;;;;;;;2.30;2.10;;;;;;;15.89;40.12;102082.75;5124119;28;20043;-58
2022/03/05 02:47:43;;;;;;;2.10;1.90;;;;;;;15.88;40.20;102086.41;5123259;28;20084;-58
2022/03/05 02:50:09;;;;;;;2.17;1.80;;;;;;;15.89;40.26;102082.75;5123711;28;20042;-58
2022/03/05 02:52:34;;;;;;;2.10;1.90;;;;;;;15.87;40.33;102079.34;5123962;28;20034;-58
2022/03/05 02:54:59;;;;;;;2.10;1.90;;;;;;;15.88;40.35;102082.88;5124195;28;20036;-58
2022/03/05 02:57:24;;;;;;;2.20;2.00;;;;;;;15.87;40.41;102086.53;5123762;28;20118;-57
2022/03/05 02:59:50;;;;;;;2.35;2.15;;;;;;;15.86;40.35;102091.03;5124023;28;20022;-57
2022/03/05 03:02:15;;;;;;;3.13;2.33;;;;;;;15.86;40.24;102080.31;5129822;28;20051;-57
2022/03/05 03:04:40;;;;;;;1.90;1.75;;;;;;;15.85;40.39;102085.81;5128851;28;20034;-57
2022/03/05 03:07:05;;;;;;;2.10;1.90;;;;;;;15.86;40.36;102091.03;5129784;28;20082;-57
2022/03/05 03:09:31;;;;;;;2.20;2.00;;;;;;;15.85;40.28;102089.34;5126620;28;20094;-57
2022/03/05 03:11:56;;;;;;;1.65;1.55;;;;;;;15.85;40.45;102088.50;5123707;28;20028;-57
2022/03/05 03:14:21;;;;;;;1.80;1.70;;;;;;;15.85;40.23;102091.16;5123359;28;20262;-57
2022/03/05 03:16:46;;;;;;;1.95;1.75;;;;;;;15.79;40.07;102086.28;5123722;28;20035;-57
2022/03/05 03:19:11;;;;;;;2.78;2.13;;;;;;;15.83;40.24;102085.91;5123350;28;20069;-57
2022/03/05 03:21:37;;;;;;;2.22;1.92;;;;;;;15.83;40.31;102087.75;5123986;28;20083;-58
2022/03/05 03:24:02;;;;;;;2.35;1.98;;;;;;;15.82;40.31;102083.34;5123444;28;20071;-57
2022/03/05 03:26:27;;;;;;;2.78;2.25;;;;;;;15.81;40.31;102079.81;5122484;28;20047;-57
2022/03/05 03:28:52;;;;;;;1.90;1.80;;;;;;;15.81;40.38;102081.66;5123360;28;20031;-57
2022/03/05 03:31:18;;;;;;;1.90;1.80;;;;;;;15.76;40.29;102082.03;5123420;28;20110;-58
2022/03/05 03:33:43;;;;;;;2.20;2.00;;;;;;;15.80;40.40;102093.34;5121693;28;20032;-58
2022/03/05 03:36:08;;;;;;;2.10;1.90;;;;;;;15.77;40.32;102085.56;5123659;28;20369;-58
2022/03/05 03:38:34;;;;;;;2.13;1.90;;;;;;;15.78;40.26;102096.16;5121759;28;20016;-58
2022/03/05 03:40:59;;;;;;;2.22;2.00;;;;;;;15.76;40.36;102090.06;5123745;28;20042;-58
2022/03/05 03:43:24;;;;;;;2.08;1.98;;;;;;;15.75;40.24;102093.69;5122817;28;20031;-58
2022/03/05 03:45:49;;;;;;;2.47;2.22;;;;;;;15.75;40.30;102089.19;5123659;28;20027;-58
2022/03/05 03:48:15;;;;;;;2.13;1.92;;;;;;;15.74;40.38;102083.94;5123214;28;20023;-57
2022/03/05 03:50:40;;;;;;;2.13;1.92;;;;;;;15.73;40.36;102085.78;5123853;28;20043;-58
2022/03/05 03:53:05;;;;;;;2.13;1.92;;;;;;;15.72;40.30;102094.81;5123416;28;20528;-58
2022/03/05 03:55:30;;;;;;;2.08;1.88;;;;;;;15.72;40.22;102088.59;5123839;28;20499;-57
2022/03/05 03:57:56;;;;;;;2.00;1.80;;;;;;;15.71;40.44;102087.72;5122517;28;20032;-58
2022/03/05 04:00:23;;;;;;;1.80;1.70;;;;;;;15.71;40.33;102100.25;5123644;28;20347;-58
2022/03/05 04:02:48;;;;;;;1.92;1.73;;;;;;;15.70;40.26;102096.72;5123571;28;20047;-56
2022/03/05 04:05:13;;;;;;;1.80;1.70;;;;;;;15.68;40.43;102087.97;5127541;28;20143;-57
2022/03/05 04:10:23;;;;;;;2.45;1.92;;;;;;;15.65;40.34;102093.56;5127265;28;20030;-57
2022/03/05 04:12:48;;;;;;;2.85;2.03;;;;;;;15.64;40.45;102094.53;5126273;28;20175;-56
2022/03/05 04:15:14;;;;;;;2.25;2.05;;;;;;;15.62;40.46;102095.59;5127420;28;20024;-58
2022/03/05 04:17:39;;;;;;;2.38;2.03;;;;;;;15.60;40.45;102093.03;5127167;27;20028;-57
2022/03/05 04:20:07;;;;;;;2.05;1.85;;;;;;;15.58;40.46;102092.28;5126735;28;20043;-57
2022/03/05 04:22:33;;;;;;;1.88;1.77;;;;;;;15.55;40.48;102094.34;5127367;28;20023;-58
2022/03/05 04:24:58;;;;;;;2.10;1.90;;;;;;;15.56;40.45;102094.25;5127010;28;20503;-58
2022/03/05 04:27:24;;;;;;;2.08;1.80;;;;;;;15.55;40.74;102092.53;5126748;28;20027;-58
2022/03/05 04:29:49;;;;;;;2.17;1.77;;;;;;;15.53;40.49;102096.28;5126436;28;20024;-58
2022/03/05 04:32:15;;;;;;;1.98;1.77;;;;;;;15.53;40.46;102098.97;5126515;28;20034;-57
2022/03/05 04:34:40;;;;;;;2.00;1.80;;;;;;;15.52;40.55;102090.09;5125045;28;20101;-58
2022/03/05 04:37:06;;;;;;;2.28;2.08;;;;;;;15.48;40.33;102084.09;5126817;28;20461;-57
2022/03/05 04:39:31;;;;;;;2.55;2.35;;;;;;;15.51;40.47;102099.09;5125137;28;20047;-57
2022/03/05 04:41:56;;;;;;;1.92;1.83;;;;;;;15.48;40.43;102092.13;5126876;28;20578;-57
2022/03/05 04:44:21;;;;;;;2.00;1.83;;;;;;;15.47;40.40;102090.44;5126127;28;20039;-57
2022/03/05 04:46:46;;;;;;;1.83;1.73;;;;;;;15.45;40.44;102099.56;5126610;28;20028;-57
2022/03/05 04:49:12;;;;;;;2.05;1.88;;;;;;;15.44;40.58;102100.53;5126318;28;20057;-56
2022/03/05 04:51:37;;;;;;;1.92;1.83;;;;;;;15.43;40.60;102097.00;5127008;28;20027;-57
2022/03/05 04:54:03;;;;;;;2.20;2.00;;;;;;;15.43;40.51;102096.16;5126229;28;20035;-57
2022/03/05 04:56:28;;;;;;;2.20;2.00;;;;;;;15.43;40.53;102101.50;5126280;27;20028;-57
2022/03/05 04:58:54;;;;;;;1.80;1.70;;;;;;;15.42;40.71;102106.03;5125653;28;20062;-57
2022/03/05 05:01:19;;;;;;;2.15;1.95;;;;;;;15.44;40.52;102113.94;5125677;28;20023;-57
2022/03/05 05:03:45;;;;;;;2.05;1.88;;;;;;;15.39;40.54;102102.72;5123970;28;20031;-57
2022/03/05 05:06:11;;;;;;;2.00;1.75;;;;;;;15.38;40.52;102101.88;5106025;28;20072;-57
2022/03/05 05:08:37;;;;;;;2.05;1.73;;;;;;;15.42;40.54;102111.38;5105302;28;20020;-57
2022/03/05 05:11:02;;;;;;;2.30;2.10;;;;;;;15.40;40.65;102107.94;5116834;28;20016;-57
2022/03/05 05:13:27;;;;;;;2.28;2.03;;;;;;;15.41;40.57;102103.44;5113460;28;20047;-57
2022/03/05 05:15:52;;;;;;;2.13;1.92;;;;;;;15.39;40.66;102106.25;5114169;28;20514;-59
2022/03/05 05:18:18;;;;;;;3.03;2.20;;;;;;;15.39;40.62;102108.06;5117381;28;20038;-58
2022/03/05 05:20:43;;;;;;;2.25;2.05;;;;;;;15.40;40.48;102110.63;5117252;28;20099;-55
2022/03/05 05:23:08;;;;;;;2.30;2.10;;;;;;;15.40;40.55;102105.25;5115436;28;20157;-58
2022/03/05 05:25:33;;;;;;;2.17;1.90;;;;;;;15.40;40.58;102099.06;5107232;28;20055;-55
2022/03/05 05:27:58;;;;;;;2.20;2.00;;;;;;;15.41;40.64;102100.75;5116605;28;20065;-58
2022/03/05 05:30:24;;;;;;;2.42;2.10;;;;;;;15.41;40.65;102106.13;5119066;28;20080;-58
2022/03/05 05:32:49;;;;;;;2.40;2.13;;;;;;;15.43;40.61;102112.22;5114911;28;20087;-55
2022/03/05 05:35:15;;;;;;;2.28;1.90;;;;;;;15.43;40.76;102104.19;5125231;28;20027;-58
2022/03/05 05:37:41;;;;;;;2.53;2.00;;;;;;;15.45;40.84;102112.97;5118067;28;20450;-57
2022/03/05 05:40:06;;;;;;;2.20;2.00;;;;;;;15.44;40.76;102106.75;5103229;28;20035;-57
2022/03/05 05:42:32;;;;;;;2.28;2.08;;;;;;;15.45;40.99;102103.09;5112647;28;20023;-58
2022/03/05 05:44:57;;;;;;;2.67;2.30;;;;;;;15.44;40.89;102104.06;5124314;28;20043;-57
2022/03/05 05:47:22;;;;;;;2.38;2.17;;;;;;;15.42;40.80;102103.34;5124859;28;20027;-57
2022/03/05 05:49:47;;;;;;;2.10;1.90;;;;;;;15.46;40.97;102109.28;5124137;28;20020;-57
2022/03/05 05:52:13;;;;;;;2.38;2.03;;;;;;;15.47;40.99;102111.03;5124884;28;20067;-57
2022/03/05 05:54:38;;;;;;;2.03;1.92;;;;;;;15.48;40.95;102110.06;5124761;28;20034;-58
2022/03/05 05:57:04;;;;;;;4.20;2.28;;;;;;;15.49;40.95;102117.97;5124626;28;20054;-58
2022/03/05 05:59:29;;;;;;;3.13;2.80;;;;;;;15.55;41.14;102115.78;5123277;28;20035;-59
2022/03/05 06:01:54;;;;;;;3.25;2.83;;;;;;;15.59;40.89;102109.22;5124636;28;20034;-55
2022/03/05 06:04:19;;;;;;;3.35;2.95;;;;;;;15.63;40.63;102113.38;5123519;28;20079;-58
2022/03/05 06:06:45;;;;;;;3.55;3.08;;;;;;;15.65;40.91;102112.31;5116786;27;20124;-58
2022/03/05 06:09:10;;;;;;;5.10;3.00;;;;;;;15.68;40.95;102113.94;5103834;28;20027;-58
2022/03/05 06:11:35;;;;;;;4.18;2.60;;;;;;;15.70;40.83;102110.13;5119621;28;20016;-58
2022/03/05 06:14:01;;;;;;;4.43;3.35;;;;;;;15.68;40.78;102103.22;5123622;28;20031;-58
2022/03/05 06:16:26;;;;;;;3.55;3.20;;;;;;;15.74;40.83;102103.56;5124200;28;20079;-56
2022/03/05 06:18:52;;;;;;;3.67;3.30;;;;;;;15.78;40.91;102124.78;5122071;28;20034;-58
2022/03/05 06:21:17;;;;;;;4.28;3.47;;;;;;;15.79;40.83;102118.44;5124181;28;20027;-58
2022/03/05 06:23:42;;;;;;;3.47;3.00;;;;;;;15.80;40.71;102122.84;5123521;28;20023;-57
2022/03/05 06:26:08;;;;;;;5.15;3.38;;;;;;;15.79;40.66;102121.13;5123543;28;20043;-58
2022/03/05 06:28:34;;;;;;;3.95;3.20;;;;;;;15.83;40.77;102126.13;5122975;28;20073;-58
2022/03/05 06:30:59;;;;;;;4.63;3.28;;;;;;;15.83;40.67;102120.78;5123616;28;20015;-57
2022/03/05 06:33:25;;;;;;;3.97;3.47;;;;;;;15.85;40.62;102121.53;5119079;28;20035;-57
2022/03/05 06:35:50;;;;;;;4.28;3.28;;;;;;;15.82;40.58;102120.91;5103929;28;20080;-57
2022/03/05 06:38:15;;;;;;;3.30;3.00;;;;;;;15.87;40.64;102126.75;5106132;28;20027;-58
2022/03/05 06:40:41;;;;;;;4.40;3.30;;;;;;;15.87;40.57;102130.28;5123777;28;20022;-58
2022/03/05 06:43:06;;;;;;;4.45;3.50;;;;;;;15.87;40.62;102132.13;5122950;28;20051;-57
2022/03/05 06:45:31;;;;;;;4.32;3.50;;;;;;;15.89;40.54;102131.03;5105482;28;20363;-58
2022/03/05 06:47:57;;;;;;;4.07;3.47;;;;;;;15.91;40.56;102138.97;5123037;28;20031;-57
2022/03/05 06:50:22;;;;;;;4.80;3.67;;;;;;;15.93;40.50;102134.34;5124203;28;20050;-58
2022/03/05 06:52:47;;;;;;;4.20;3.15;;;;;;;15.93;40.46;102137.88;5123942;28;20426;-58
2022/03/05 06:55:14;;;;;;;4.32;3.75;;;;;;;15.95;40.49;102138.59;5124297;28;20086;-59
2022/03/05 06:57:40;;;;;;;4.57;3.20;;;;;;;15.96;40.37;102140.28;5121966;28;20492;-58
2022/03/05 07:00:07;;;;;;;5.60;3.80;;;;;;;15.99;40.38;102141.91;5123175;28;20024;-54
2022/03/05 07:02:32;;;;;;;5.95;3.80;;;;;;;15.99;40.30;102140.06;5123389;28;20051;-59
2022/03/05 07:04:57;;;;;;;4.70;3.30;;;;;;;16.01;40.13;102137.25;5123220;28;20023;-58
2022/03/05 07:07:22;;;;;;;4.10;3.15;;;;;;;16.01;40.22;102137.25;5123439;28;20185;-57
2022/03/05 07:09:48;;;;;;;3.97;3.47;;;;;;;16.07;40.19;102138.63;5123153;28;20020;-58
2022/03/05 07:12:13;;;;;;;4.75;3.58;;;;;;;16.08;40.20;102146.53;5123286;28;20038;-58
2022/03/05 07:14:38;;;;;;;4.28;3.88;;;;;;;16.04;40.19;102134.34;5122930;28;20593;-58
2022/03/05 07:17:04;;;;;;;4.38;3.42;;;;;;;16.14;40.15;102150.56;5122624;28;20131;-58
2022/03/05 07:19:29;;;;;;;3.40;3.10;;;;;;;16.19;40.06;102159.13;5121891;28;20042;-57
2022/03/05 07:21:54;;;;;;;5.28;3.60;;;;;;;16.22;39.90;102158.88;5123434;28;20028;-56
2022/03/05 07:24:19;;;;;;;4.80;3.63;;;;;;;16.25;39.76;102154.13;5123289;28;20036;-58
2022/03/05 07:26:45;;;;;;;4.20;3.40;;;;;;;16.31;39.77;102166.22;5122967;28;20020;-58
2022/03/05 07:29:10;;;;;;;8.82;3.97;;;;;;;16.37;39.57;102155.00;5122934;28;20101;-58
2022/03/05 07:31:35;;;;;;;3.55;3.05;;;;;;;16.44;39.48;102164.28;5123782;28;20042;-58
2022/03/05 07:34:00;;;;;;;3.78;3.15;;;;;;;16.50;39.30;102162.91;5125029;28;20251;-58
2022/03/05 07:36:25;;;;;;;3.65;3.15;;;;;;;16.61;39.02;102162.03;5129987;28;20318;-58
2022/03/05 07:38:51;;;;;;;4.53;3.58;;;;;;;16.70;38.99;102166.72;5132386;28;20084;-57
2022/03/05 07:41:17;;;;;;;5.50;3.47;;;;;;;16.79;38.76;102162.47;5132548;28;20019;-58
2022/03/05 07:43:42;;;;;;;4.75;3.63;;;;;;;16.85;38.62;102165.47;5128886;28;20061;-58
2022/03/05 07:46:08;;;;;;;5.50;2.83;;;;;;;16.90;38.32;102168.63;5128014;28;20046;-58
2022/03/05 07:48:33;;;;;;;6.05;3.95;;;;;;;16.97;38.26;102171.69;5125727;28;20030;-58
2022/03/05 07:51:00;;;;;;;3.60;3.00;;;;;;;17.05;38.10;102171.91;5127606;28;20054;-58
2022/03/05 07:53:26;;;;;;;3.38;3.05;;;;;;;17.14;37.83;102175.69;5127476;28;20050;-58
2022/03/05 07:55:51;;;;;;;3.95;3.38;;;;;;;17.26;37.64;102181.91;5127721;28;20430;-58
2022/03/05 07:58:17;;;;;;;4.78;3.45;;;;;;;17.35;37.38;102175.75;5126646;28;20023;-57
2022/03/05 08:00:42;;;;;;;3.92;3.28;;;;;;;17.44;37.38;102172.28;5127303;28;20027;-56
2022/03/05 08:03:07;;;;;;;3.63;3.00;;;;;;;17.57;36.95;102177.50;5126332;28;20031;-56
2022/03/05 08:05:32;;;;;;;3.97;2.95;;;;;;;17.76;36.78;102172.31;5127370;28;20308;-58
2022/03/05 08:07:58;;;;;;;4.03;2.83;;;;;;;17.96;36.40;102171.44;5127036;28;20035;-59
2022/03/05 08:10:23;;;;;;;4.88;2.95;;;;;;;18.14;36.05;102177.09;5127257;28;20041;-59
2022/03/05 08:12:48;;;;;;;4.25;2.80;;;;;;;18.30;35.92;102173.91;5126032;28;20081;-55
2022/03/05 08:15:14;;;;;;;3.33;2.90;;;;;;;18.49;35.45;102179.41;5127277;28;20057;-58
2022/03/05 08:17:53;;;;;;;3.55;2.80;;;;;;;18.86;34.71;102178.88;5125486;28;20034;-59
2022/03/05 08:20:19;;;;;;;3.33;2.67;;;;;;;19.24;34.06;102171.81;5125223;28;20118;-59
2022/03/05 08:22:45;;;;;;;4.25;3.03;;;;;;;19.61;33.56;102179.25;5126969;28;20020;-58
2022/03/05 08:25:10;;;;;;;3.72;2.92;;;;;;;19.92;33.29;102171.84;5126910;28;20023;-58
2022/03/05 08:27:36;;;;;;;3.60;2.63;;;;;;;20.17;32.45;102173.06;5126689;28;20412;-58
2022/03/05 08:30:02;;;;;;;3.40;2.70;;;;;;;20.57;32.17;102177.38;5126516;28;20024;-58
2022/03/05 08:32:27;;;;;;;3.03;2.38;;;;;;;20.98;31.70;102173.31;5126812;28;20070;-58
2022/03/05 08:34:52;;;;;;;3.35;2.45;;;;;;;21.37;30.79;102182.06;5126395;28;20043;-59
2022/03/05 08:37:18;;;;;;;3.50;2.47;;;;;;;21.73;30.53;102173.91;5125735;28;20036;-58
2022/03/05 08:39:43;;;;;;;3.92;2.78;;;;;;;22.04;29.95;102174.31;5126776;28;20051;-58
2022/03/05 08:42:08;;;;;;;4.10;2.78;;;;;;;22.25;29.42;102181.25;5126706;28;20532;-57
2022/03/05 08:44:34;;;;;;;4.25;3.15;;;;;;;22.29;29.00;102178.06;5126065;28;20098;-58
2022/03/05 08:46:59;;;;;;;4.10;3.13;;;;;;;22.32;28.78;102185.88;5125896;28;20027;-58
2022/03/05 08:49:24;;;;;;;4.70;3.30;;;;;;;22.26;28.76;102177.53;5125848;28;20429;-58
2022/03/05 08:51:49;;;;;;;4.00;3.17;;;;;;;22.25;29.09;102179.38;5126959;28;20468;-57
2022/03/05 08:54:15;;;;;;;4.07;2.75;;;;;;;22.30;28.89;102178.91;5124774;28;20032;-58
2022/03/05 08:56:40;;;;;;;4.72;3.28;;;;;;;22.37;28.43;102183.53;5126283;28;20019;-57
2022/03/05 08:59:05;;;;;;;4.15;3.05;;;;;;;22.55;28.59;102180.72;5125527;28;20031;-58
2022/03/05 09:01:30;;;;;;;4.07;3.05;;;;;;;22.80;28.14;102176.28;5126315;28;20238;-58
2022/03/05 09:03:56;;;;;;;4.28;3.00;;;;;;;23.09;27.65;102180.47;5125477;28;20085;-58
2022/03/05 09:06:21;;;;;;;4.22;2.83;;;;;;;23.40;27.41;102184.25;5126167;28;20076;-57
2022/03/05 09:08:46;;;;;;;4.38;3.13;;;;;;;23.75;26.87;102179.56;5124153;28;20066;-58
2022/03/05 09:11:11;;;;;;;4.30;3.05;;;;;;;24.08;26.58;102183.09;5113757;28;20055;-58
2022/03/05 09:13:36;;;;;;;4.18;2.55;;;;;;;24.37;26.17;102184.38;5124703;28;20032;-59
2022/03/05 09:16:02;;;;;;;5.30;2.88;;;;;;;24.62;25.75;102180.59;5126220;28;20023;-58
2022/03/05 09:18:28;;;;;;;3.60;2.72;;;;;;;24.85;25.53;102182.53;5125262;28;20048;-58
2022/03/05 09:20:53;;;;;;;3.28;2.88;;;;;;;25.07;25.08;102186.34;5125734;28;20054;-58
2022/03/05 09:23:19;;;;;;;3.38;2.65;;;;;;;25.23;24.92;102178.09;5125587;28;20106;-59
2022/03/05 09:25:44;;;;;;;3.60;2.60;;;;;;;25.40;24.69;102174.25;5125795;28;20034;-58
2022/03/05 09:28:09;;;;;;;3.38;2.83;;;;;;;25.60;24.41;102181.91;5124768;27;20070;-58
2022/03/05 09:30:34;;;;;;;4.00;2.60;;;;;;;25.72;24.22;102172.28;5125684;28;20087;-58
2022/03/05 09:33:00;;;;;;;3.10;2.42;;;;;;;25.84;24.32;102170.00;5125318;28;20388;-58
2022/03/05 09:35:25;;;;;;;3.60;2.53;;;;;;;25.95;23.71;102171.41;5124993;28;20085;-58
2022/03/05 09:37:50;;;;;;;4.32;2.80;;;;;;;26.10;23.55;102172.31;5124852;28;20030;-57
2022/03/05 09:40:15;;;;;;;3.67;2.35;;;;;;;26.21;23.50;102171.84;5125084;28;20055;-58
2022/03/05 09:42:44;;;;;;;3.50;2.85;;;;;;;26.35;23.32;102160.09;5124861;28;20396;-58
2022/03/05 09:45:11;;;;;;;3.70;2.55;;;;;;;26.43;23.17;102167.34;5124427;27;20039;-58
2022/03/05 09:47:38;;;;;;;3.45;2.50;;;;;;;26.52;22.79;102166.25;5125063;28;20057;-58
2022/03/05 09:50:06;;;;;;;3.67;2.50;;;;;;;26.62;22.69;102166.78;5124400;28;20028;-58
2022/03/05 09:52:32;;;;;;;3.10;2.38;;;;;;;26.64;22.57;102159.28;5125014;28;20491;-58
2022/03/05 09:54:57;;;;;;;3.55;2.63;;;;;;;26.73;22.48;102165.47;5125163;28;20440;-58
2022/03/05 09:57:22;;;;;;;3.53;2.58;;;;;;;26.78;22.67;102162.16;5124754;28;20027;-58
2022/03/05 09:59:47;;;;;;;3.40;2.67;;;;;;;26.66;22.41;102162.63;5123213;28;20035;-58
2022/03/05 10:02:13;;;;;;;3.72;2.63;;;;;;;26.26;22.62;102171.28;5124781;28;20031;-58
2022/03/05 10:04:39;;;;;;;2.95;2.45;;;;;;;25.59;23.17;102162.00;5124194;28;20020;-58
2022/03/05 10:07:06;;;;;;;4.55;3.22;;;;;;;24.91;23.94;102165.50;5124872;28;20023;-58
2022/03/05 10:09:31;;;;;;;3.20;2.53;;;;;;;24.26;24.71;102168.47;5124285;28;20034;-58
2022/03/05 10:11:56;;;;;;;4.40;3.25;;;;;;;23.67;25.33;102166.00;5112372;28;20019;-58
2022/03/05 10:14:21;;;;;;;4.65;3.17;;;;;;;23.17;25.90;102166.94;5124579;28;20030;-57
2022/03/05 10:16:47;;;;;;;4.68;2.90;;;;;;;22.75;26.47;102167.78;5124522;28;20038;-57
2022/03/05 10:19:18;;;;;;;4.72;3.42;;;;;;;22.38;26.95;102166.25;5124251;28;20046;-57
2022/03/05 10:22:01;;;;;;;4.22;2.83;;;;;;;22.03;27.49;102160.94;5124552;28;20430;-58
2022/03/05 10:24:34;;;;;;;4.10;3.20;;;;;;;21.77;28.06;102159.06;5124668;28;20330;-57
2022/03/05 10:27:00;;;;;;;3.42;2.92;;;;;;;21.55;28.59;102168.53;5123319;28;20087;-58
2022/03/05 10:29:29;;;;;;;4.13;2.60;;;;;;;21.36;28.37;102156.00;5123784;28;20039;-58
2022/03/05 10:31:58;;;;;;;4.45;3.10;;;;;;;21.18;28.68;102161.38;5124673;28;20082;-59
2022/03/05 10:34:24;;;;;;;4.50;3.38;;;;;;;21.03;28.96;102159.38;5124197;28;20046;-58
2022/03/05 10:37:00;;;;;;;4.03;3.20;;;;;;;20.88;29.40;102167.97;5124582;28;20028;-59
2022/03/05 10:39:26;;;;;;;3.75;2.80;;;;;;;20.75;29.40;102162.06;5123705;28;20023;-59
2022/03/05 10:41:52;;;;;;;4.50;3.25;;;;;;;20.63;29.99;102158.72;5124418;28;20088;-58
2022/03/05 10:44:18;;;;;;;5.38;3.75;;;;;;;20.53;29.94;102159.78;5123823;28;20019;-58
2022/03/05 10:46:48;;;;;;;4.65;3.00;;;;;;;20.43;30.36;102162.47;5124381;28;20085;-58
2022/03/05 10:49:27;;;;;;;5.90;3.95;;;;;;;20.33;30.40;102162.50;5123514;28;20019;-59
2022/03/05 10:52:04;;;;;;;3.97;3.13;;;;;;;20.23;30.82;102162.53;5124723;28;20039;-58
2022/03/05 10:54:40;;;;;;;4.10;3.30;;;;;;;20.15;30.83;102162.41;5124021;28;20043;-58
2022/03/05 10:57:05;;;;;;;5.00;3.47;;;;;;;20.08;31.10;102163.16;5124206;28;20088;-59
2022/03/05 10:59:39;;;;;;;4.60;3.50;;;;;;;20.02;31.14;102159.19;5123011;28;20531;-58
2022/03/05 11:02:08;;;;;;;4.55;3.42;;;;;;;19.95;31.35;102158.06;5123981;28;20047;-58
2022/03/05 11:04:35;;;;;;;;;;;;;;;19.89;31.73;102153.25;5123915;28;20043;-58
2022/03/05 11:07:01;;;;;;;6.25;4.03;;;;;;;19.85;31.83;102154.53;5119594;28;19914;-55
2022/03/05 11:09:27;;;;;;;4.53;3.60;;;;;;;19.81;32.17;102161.22;5105657;28;20091;-57
2022/03/05 11:11:53;;;;;;;5.38;3.90;;;;;;;19.76;32.38;102166.22;5117952;28;20392;-57
2022/03/05 11:14:18;;;;;;;6.00;3.78;;;;;;;19.70;32.35;102148.72;5112017;28;20028;-58
2022/03/05 11:16:44;;;;;;;5.57;4.30;;;;;;;19.70;32.56;102154.13;5116888;28;20057;-59
2022/03/05 11:19:09;;;;;;;5.57;4.32;;;;;;;19.67;32.97;102151.72;5115900;28;20066;-57